Time;durP1;ratioP1;P1;durP2;ratioP2;P2;SDS_P1;SDS_P2;PMS_P1;PMS_P2;Temp;Humidity;BMP_temperature;BMP_pressure;BME280_temperature;BME280_humidity;BME280_pressure;Samples;Min_cycle;Max_cycle;Signal;HPM_P1;HPM_P2
2023/11/27 00:00:03;;;;;;;0.10;0.10;;;1.60;96.60;;;;;;5104419;28;20047;-80
2023/11/27 00:02:29;;;;;;;0.10;0.10;;;1.60;96.70;;;;;;5105343;28;20042;-80
2023/11/27 00:04:54;;;;;;;0.68;0.68;;;1.60;96.50;;;;;;5105272;28;20028;-81
2023/11/27 00:07:20;;;;;;;0.10;0.10;;;1.60;96.40;;;;;;5099002;28;20023;-80
2023/11/27 00:09:46;;;;;;;0.00;0.00;;;1.60;96.10;;;;;;5100206;28;20086;-82
2023/11/27 00:12:11;;;;;;;0.10;0.10;;;1.70;96.00;;;;;;5095023;28;20027;-82
2023/11/27 00:14:37;;;;;;;0.65;0.65;;;1.70;95.90;;;;;;5095932;28;20031;-82
2023/11/27 00:17:02;;;;;;;0.10;0.10;;;1.70;96.00;;;;;;5100987;28;20501;-81
2023/11/27 00:19:28;;;;;;;0.10;0.10;;;1.60;96.00;;;;;;5099018;28;20040;-81
2023/11/27 00:21:54;;;;;;;0.52;0.52;;;1.50;96.00;;;;;;5103797;28;20025;-80
2023/11/27 00:24:20;;;;;;;0.10;0.10;;;1.60;95.90;;;;;;5104677;28;20027;-82
2023/11/27 00:26:46;;;;;;;0.10;0.10;;;1.60;95.90;;;;;;5104641;28;20032;-82
2023/11/27 00:29:12;;;;;;;0.10;0.10;;;1.50;95.90;;;;;;5103561;28;20047;-80
2023/11/27 00:31:38;;;;;;;0.10;0.10;;;1.50;95.90;;;;;;5100213;28;20016;-82
2023/11/27 00:34:03;;;;;;;0.10;0.10;;;1.50;95.90;;;;;;5099457;28;20997;-82
2023/11/27 00:36:29;;;;;;;0.20;0.20;;;1.40;96.00;;;;;;5098831;28;20389;-82
2023/11/27 00:38:54;;;;;;;0.05;0.05;;;1.50;96.00;;;;;;5103619;27;20122;-83
2023/11/27 00:41:20;;;;;;;0.08;0.08;;;1.50;96.00;;;;;;5104517;28;20117;-83
2023/11/27 00:43:46;;;;;;;0.10;0.10;;;1.40;96.10;;;;;;5103951;28;20092;-83
2023/11/27 00:46:13;;;;;;;0.10;0.10;;;1.50;96.10;;;;;;5099003;28;20895;-82
2023/11/27 00:48:40;;;;;;;0.08;0.08;;;1.40;96.10;;;;;;5102722;28;20042;-83
2023/11/27 00:51:06;;;;;;;0.10;0.10;;;1.50;96.10;;;;;;5103401;28;20053;-82
2023/11/27 00:53:32;;;;;;;0.00;0.00;;;1.50;95.90;;;;;;5103974;28;20473;-84
2023/11/27 00:55:57;;;;;;;0.10;0.10;;;1.60;95.70;;;;;;5101162;28;20027;-84
2023/11/27 00:58:23;;;;;;;0.10;0.10;;;1.60;95.70;;;;;;5099437;28;20028;-83
2023/11/27 01:00:49;;;;;;;0.10;0.10;;;1.50;95.70;;;;;;5096772;28;20115;-82
2023/11/27 01:03:15;;;;;;;5.53;3.35;;;1.50;95.90;;;;;;5103230;28;20023;-81
2023/11/27 01:05:41;;;;;;;0.10;0.10;;;1.40;96.10;;;;;;5103421;28;20062;-81
2023/11/27 01:08:07;;;;;;;0.30;0.30;;;1.40;96.30;;;;;;5101824;28;20027;-83
2023/11/27 01:10:32;;;;;;;0.10;0.10;;;1.40;96.30;;;;;;5103210;28;20589;-82
2023/11/27 01:12:58;;;;;;;0.10;0.10;;;1.40;96.30;;;;;;5099462;28;20514;-83
2023/11/27 01:15:25;;;;;;;3.40;2.20;;;1.40;96.20;;;;;;5097455;28;20046;-81
2023/11/27 01:17:50;;;;;;;0.00;0.00;;;1.50;96.00;;;;;;5099183;28;20023;-83
2023/11/27 01:20:16;;;;;;;0.20;0.20;;;1.50;95.90;;;;;;5098948;28;20039;-83
2023/11/27 01:22:42;;;;;;;0.10;0.10;;;1.50;95.90;;;;;;5098145;28;20112;-83
2023/11/27 01:25:08;;;;;;;0.17;0.17;;;1.60;96.10;;;;;;5102723;28;20055;-83
2023/11/27 01:27:34;;;;;;;2.55;1.45;;;1.60;96.00;;;;;;5103253;28;20024;-83
2023/11/27 01:30:04;;;;;;;0.88;0.88;;;1.60;95.80;;;;;;5101240;28;20028;-83
2023/11/27 01:32:30;;;;;;;3.50;2.10;;;1.70;95.70;;;;;;5093412;28;20028;-82
2023/11/27 01:34:56;;;;;;;0.10;0.10;;;1.70;95.80;;;;;;5103043;28;20473;-81
2023/11/27 01:37:22;;;;;;;0.10;0.10;;;1.70;95.60;;;;;;5096769;28;20032;-83
2023/11/27 01:39:48;;;;;;;0.28;0.28;;;1.80;95.40;;;;;;5102948;28;20300;-81
2023/11/27 01:42:14;;;;;;;0.10;0.10;;;1.80;95.30;;;;;;5102959;28;20718;-82
2023/11/27 01:44:40;;;;;;;0.10;0.10;;;1.90;95.20;;;;;;5103232;28;20839;-81
2023/11/27 01:47:55;;;;;;;0.10;0.10;;;1.80;95.10;;;;;;5095275;28;20568;-81
2023/11/27 01:50:20;;;;;;;0.10;0.10;;;1.80;95.00;;;;;;5100907;28;20106;-81
2023/11/27 01:52:47;;;;;;;0.10;0.10;;;1.90;95.40;;;;;;5096426;28;20118;-81
2023/11/27 01:55:13;;;;;;;0.10;0.10;;;2.00;95.30;;;;;;5095988;28;20054;-79
2023/11/27 01:57:39;;;;;;;0.10;0.10;;;2.10;95.10;;;;;;5098087;28;20490;-81
2023/11/27 02:00:06;;;;;;;0.10;0.10;;;2.20;94.70;;;;;;5096819;28;20132;-81
2023/11/27 02:02:31;;;;;;;0.10;0.10;;;2.40;94.50;;;;;;5099804;28;20024;-80
2023/11/27 02:04:57;;;;;;;0.17;0.17;;;2.40;94.10;;;;;;5102605;28;20032;-80
2023/11/27 02:07:23;;;;;;;0.10;0.10;;;2.30;94.30;;;;;;5096885;28;20396;-81
2023/11/27 02:09:49;;;;;;;0.10;0.10;;;2.30;94.30;;;;;;5099334;28;20108;-81
2023/11/27 02:12:15;;;;;;;0.10;0.10;;;2.30;94.50;;;;;;5102609;28;20502;-80
2023/11/27 02:14:41;;;;;;;0.10;0.10;;;2.30;94.40;;;;;;5101924;28;20304;-80
2023/11/27 02:17:07;;;;;;;0.10;0.10;;;2.20;94.70;;;;;;5098423;28;20652;-80
2023/11/27 02:19:33;;;;;;;0.10;0.10;;;2.20;94.70;;;;;;5093366;28;20382;-80
2023/11/27 02:21:59;;;;;;;0.00;0.00;;;2.20;94.90;;;;;;5103367;28;20028;-80
2023/11/27 02:24:24;;;;;;;0.10;0.10;;;2.20;95.00;;;;;;5102359;28;20114;-80
2023/11/27 02:26:50;;;;;;;0.10;0.10;;;2.20;94.80;;;;;;5099455;28;20059;-80
2023/11/27 02:29:15;;;;;;;0.10;0.10;;;2.20;94.90;;;;;;5097649;28;20028;-80
2023/11/27 02:31:41;;;;;;;0.20;0.20;;;2.10;95.20;;;;;;5100357;28;20521;-79
2023/11/27 02:34:07;;;;;;;0.10;0.10;;;2.10;94.90;;;;;;5096601;28;20081;-80
2023/11/27 02:36:38;;;;;;;0.10;0.10;;;2.10;95.00;;;;;;5095919;28;20490;-79
2023/11/27 02:39:06;;;;;;;0.10;0.10;;;2.10;94.80;;;;;;5089238;28;20081;-80
2023/11/27 02:41:34;;;;;;;0.20;0.20;;;2.10;94.60;;;;;;5098695;28;20080;-79
2023/11/27 02:44:00;;;;;;;0.10;0.10;;;2.00;94.70;;;;;;5097423;28;20028;-80
2023/11/27 02:46:25;;;;;;;0.10;0.10;;;2.10;94.80;;;;;;5098956;28;20456;-84
2023/11/27 02:48:51;;;;;;;0.10;0.10;;;2.10;94.70;;;;;;5095073;28;20085;-82
2023/11/27 02:51:17;;;;;;;0.10;0.10;;;2.10;94.70;;;;;;5102910;28;20027;-85
2023/11/27 02:53:42;;;;;;;0.10;0.10;;;2.20;94.60;;;;;;5097519;28;20024;-80
2023/11/27 02:56:08;;;;;;;0.10;0.10;;;2.10;94.70;;;;;;5094518;28;20024;-84
2023/11/27 02:58:38;;;;;;;1.05;0.63;;;2.00;94.90;;;;;;5093714;28;20035;-80
2023/11/27 03:01:05;;;;;;;0.10;0.10;;;2.10;95.00;;;;;;5100017;28;20051;-81
2023/11/27 03:03:34;;;;;;;0.10;0.10;;;2.10;95.30;;;;;;5093153;28;20526;-83
2023/11/27 03:06:00;;;;;;;;;;;2.10;95.20;;;;;;5099566;28;20032;-82
2023/11/27 03:08:25;;;;;;;0.10;0.10;;;2.10;95.20;;;;;;5102267;28;20572;-82
2023/11/27 03:10:51;;;;;;;0.10;0.10;;;2.10;94.80;;;;;;5101159;28;20028;-81
2023/11/27 03:13:17;;;;;;;0.10;0.10;;;2.20;94.70;;;;;;5099995;28;20023;-81
2023/11/27 03:15:42;;;;;;;0.20;0.20;;;2.20;94.50;;;;;;5100455;28;20024;-81
2023/11/27 03:18:08;;;;;;;0.10;0.10;;;2.20;94.80;;;;;;5099545;28;20016;-81
2023/11/27 03:20:34;;;;;;;0.00;0.00;;;2.20;94.80;;;;;;5105668;27;20398;-81
2023/11/27 03:22:59;;;;;;;0.10;0.10;;;2.10;94.80;;;;;;5101620;28;20031;-81
2023/11/27 03:25:25;;;;;;;0.17;0.17;;;2.10;94.90;;;;;;5102332;28;20047;-81
2023/11/27 03:27:51;;;;;;;0.10;0.10;;;2.00;95.00;;;;;;5104279;28;20120;-81
2023/11/27 03:30:16;;;;;;;0.10;0.10;;;2.10;95.20;;;;;;5105625;28;20019;-82
2023/11/27 03:32:42;;;;;;;0.10;0.10;;;2.00;95.40;;;;;;5105584;28;20054;-82
2023/11/27 03:35:08;;;;;;;0.13;0.13;;;2.00;95.80;;;;;;5106148;28;20394;-80
2023/11/27 03:37:34;;;;;;;0.10;0.10;;;2.00;95.90;;;;;;5100850;28;20119;-82
2023/11/27 03:40:00;;;;;;;0.10;0.10;;;2.00;95.90;;;;;;5103948;28;20047;-80
2023/11/27 03:42:26;;;;;;;0.10;0.10;;;2.00;95.90;;;;;;5104217;28;20070;-80
2023/11/27 03:44:52;;;;;;;0.25;0.25;;;2.00;95.80;;;;;;5104931;28;20478;-80
2023/11/27 03:47:17;;;;;;;0.10;0.10;;;2.00;95.90;;;;;;5104637;28;20032;-81
2023/11/27 03:49:43;;;;;;;0.10;0.10;;;2.00;95.80;;;;;;5104576;28;20868;-81
2023/11/27 03:52:09;;;;;;;0.10;0.10;;;2.00;95.70;;;;;;5105324;28;20031;-80
2023/11/27 03:54:34;;;;;;;0.05;0.05;;;2.00;95.80;;;;;;5096972;28;20747;-82
2023/11/27 03:57:00;;;;;;;0.10;0.10;;;2.10;96.20;;;;;;5096140;28;20504;-81
2023/11/27 03:59:26;;;;;;;0.10;0.10;;;2.00;95.80;;;;;;5099072;28;20135;-82
2023/11/27 04:01:51;;;;;;;0.10;0.10;;;2.00;95.70;;;;;;5095234;28;20075;-81
2023/11/27 04:04:17;;;;;;;0.10;0.10;;;2.10;95.50;;;;;;5103869;28;20036;-81
2023/11/27 04:06:45;;;;;;;0.10;0.10;;;2.10;95.60;;;;;;5096029;28;20487;-80
2023/11/27 04:09:13;;;;;;;0.10;0.10;;;2.10;95.60;;;;;;5102995;28;20104;-82
2023/11/27 04:11:39;;;;;;;0.00;0.00;;;2.10;95.90;;;;;;5100002;28;20484;-82
2023/11/27 04:14:05;;;;;;;0.10;0.10;;;2.10;95.90;;;;;;5103079;28;20073;-81
2023/11/27 04:16:30;;;;;;;0.10;0.10;;;2.10;95.90;;;;;;5104375;28;20273;-82
2023/11/27 04:18:56;;;;;;;0.10;0.10;;;2.20;95.80;;;;;;5104024;28;20768;-82
2023/11/27 04:21:22;;;;;;;0.00;0.00;;;2.30;95.50;;;;;;5100957;28;20036;-81
2023/11/27 04:23:48;;;;;;;0.00;0.00;;;2.30;95.40;;;;;;5101002;28;20024;-81
2023/11/27 04:26:21;;;;;;;0.10;0.10;;;2.40;95.40;;;;;;5102618;28;20561;-80
2023/11/27 04:28:47;;;;;;;0.10;0.10;;;2.50;95.20;;;;;;5101482;28;20035;-82
2023/11/27 04:31:13;;;;;;;0.10;0.10;;;2.40;94.90;;;;;;5102476;28;20031;-81
2023/11/27 04:33:39;;;;;;;0.10;0.10;;;2.50;94.80;;;;;;5104549;28;20027;-80
2023/11/27 04:36:06;;;;;;;0.13;0.13;;;2.70;94.80;;;;;;5101193;28;20024;-81
2023/11/27 04:38:31;;;;;;;0.10;0.10;;;2.60;94.40;;;;;;5104946;28;20024;-82
2023/11/27 04:40:57;;;;;;;0.40;0.40;;;2.80;94.20;;;;;;5104182;28;20749;-83
2023/11/27 04:43:23;;;;;;;0.10;0.10;;;2.80;94.00;;;;;;5104438;28;20040;-80
2023/11/27 04:45:48;;;;;;;0.10;0.10;;;2.80;93.90;;;;;;5095026;28;20020;-81
2023/11/27 04:48:14;;;;;;;0.10;0.10;;;2.70;93.80;;;;;;5101788;28;20147;-79
2023/11/27 04:50:40;;;;;;;0.10;0.10;;;2.80;94.00;;;;;;5104082;28;20032;-80
2023/11/27 04:53:05;;;;;;;0.00;0.00;;;2.70;94.60;;;;;;5102030;28;20548;-80
2023/11/27 04:55:32;;;;;;;0.10;0.10;;;2.60;94.80;;;;;;5096142;28;20104;-80
2023/11/27 04:57:58;;;;;;;0.10;0.10;;;2.50;94.90;;;;;;5094181;28;20054;-79
2023/11/27 05:00:23;;;;;;;0.10;0.10;;;2.50;95.20;;;;;;5095330;28;20700;-80
2023/11/27 05:02:49;;;;;;;0.10;0.10;;;2.50;95.20;;;;;;5103183;28;20432;-81
2023/11/27 05:05:15;;;;;;;0.50;0.50;;;2.40;95.30;;;;;;5103476;28;20102;-83
2023/11/27 05:07:41;;;;;;;0.10;0.10;;;2.40;95.70;;;;;;5101941;28;20023;-82
2023/11/27 05:10:07;;;;;;;0.15;0.15;;;2.40;95.80;;;;;;5098706;28;20032;-85
2023/11/27 05:12:34;;;;;;;0.60;0.60;;;2.40;95.90;;;;;;5105364;28;20082;-85
2023/11/27 05:15:00;;;;;;;0.10;0.10;;;2.40;96.40;;;;;;5100484;28;20027;-86
2023/11/27 05:17:25;;;;;;;0.30;0.30;;;2.50;98.10;;;;;;5096769;28;20032;-85
2023/11/27 05:19:51;;;;;;;1.08;1.00;;;2.60;98.30;;;;;;5096625;28;20082;-85
2023/11/27 05:22:18;;;;;;;0.10;0.10;;;2.60;98.30;;;;;;5098172;28;20027;-84
2023/11/27 05:24:44;;;;;;;0.10;0.10;;;2.60;98.90;;;;;;5096162;28;20574;-84
2023/11/27 05:27:09;;;;;;;0.10;0.10;;;2.50;99.90;;;;;;5094198;28;20141;-84
2023/11/27 05:29:35;;;;;;;0.10;0.10;;;2.50;99.90;;;;;;5094606;28;20051;-85
2023/11/27 05:32:07;;;;;;;0.10;0.10;;;2.60;99.90;;;;;;5103225;28;20833;-86
2023/11/27 05:34:36;;;;;;;0.40;0.40;;;2.60;99.90;;;;;;5092745;28;20024;-82
2023/11/27 05:37:08;;;;;;;0.10;0.10;;;2.50;99.90;;;;;;5100071;28;20535;-85
2023/11/27 05:39:33;;;;;;;0.10;0.10;;;2.40;99.90;;;;;;5100692;28;20035;-83
2023/11/27 05:42:02;;;;;;;0.10;0.10;;;2.40;99.90;;;;;;5089701;28;20028;-82
2023/11/27 05:44:28;;;;;;;0.10;0.10;;;2.40;99.90;;;;;;5091515;28;20021;-80
2023/11/27 05:46:54;;;;;;;0.10;0.10;;;2.50;99.90;;;;;;5090075;28;20051;-82
2023/11/27 05:49:19;;;;;;;0.10;0.10;;;2.60;99.90;;;;;;5103052;28;20066;-80
2023/11/27 05:51:46;;;;;;;0.20;0.20;;;2.60;99.90;;;;;;5099414;28;20473;-80
2023/11/27 05:54:11;;;;;;;0.90;0.53;;;2.70;99.90;;;;;;5097080;28;20020;-80
2023/11/27 05:56:37;;;;;;;0.10;0.10;;;2.50;99.90;;;;;;5094189;28;20094;-80
2023/11/27 05:59:04;;;;;;;0.10;0.10;;;2.50;99.90;;;;;;5093682;28;20032;-80
2023/11/27 06:01:30;;;;;;;0.10;0.10;;;2.40;99.90;;;;;;5100121;28;20502;-80
2023/11/27 06:03:56;;;;;;;0.10;0.10;;;2.20;99.90;;;;;;5096109;28;20119;-80
2023/11/27 06:06:21;;;;;;;0.20;0.20;;;2.10;99.90;;;;;;5094007;28;20103;-80
2023/11/27 06:08:48;;;;;;;0.10;0.10;;;2.10;99.90;;;;;;5091368;28;20133;-79
2023/11/27 06:11:14;;;;;;;0.10;0.10;;;2.20;99.90;;;;;;5097619;28;20042;-80
2023/11/27 06:13:41;;;;;;;0.22;0.22;;;2.20;99.90;;;;;;5094052;28;20027;-80
2023/11/27 06:16:08;;;;;;;0.10;0.10;;;2.00;99.90;;;;;;5092861;28;20067;-80
2023/11/27 06:18:34;;;;;;;0.10;0.10;;;2.00;99.90;;;;;;5090625;28;20016;-80
2023/11/27 06:21:00;;;;;;;0.10;0.10;;;2.10;99.90;;;;;;5097234;28;20035;-80
2023/11/27 06:23:26;;;;;;;0.10;0.10;;;2.00;99.90;;;;;;5102108;28;20039;-80
2023/11/27 06:25:51;;;;;;;1.00;1.00;;;1.90;99.90;;;;;;5097979;28;20046;-81
2023/11/27 06:28:18;;;;;;;0.10;0.10;;;1.90;99.90;;;;;;5099198;28;20110;-81
2023/11/27 06:30:44;;;;;;;0.85;0.85;;;2.10;99.90;;;;;;5097851;28;20066;-81
2023/11/27 06:33:09;;;;;;;0.10;0.10;;;2.20;99.90;;;;;;5104914;28;20456;-81
2023/11/27 06:35:35;;;;;;;0.20;0.20;;;2.20;99.90;;;;;;5101006;28;20436;-81
2023/11/27 06:38:02;;;;;;;0.10;0.10;;;2.20;99.90;;;;;;5106632;28;20747;-81
2023/11/27 06:40:28;;;;;;;;;;;2.10;99.90;;;;;;5102437;28;20431;-81
2023/11/27 06:42:55;;;;;;;0.10;0.10;;;2.20;99.90;;;;;;5104005;28;19907;-81
2023/11/27 06:45:21;;;;;;;0.10;0.10;;;2.20;99.90;;;;;;5104172;28;20133;-81
2023/11/27 06:47:48;;;;;;;2.85;2.63;;;2.50;99.90;;;;;;5106034;28;20126;-81
2023/11/27 06:50:14;;;;;;;0.17;0.17;;;2.50;99.90;;;;;;5102589;28;20028;-81
2023/11/27 06:52:40;;;;;;;0.10;0.10;;;2.50;99.90;;;;;;5105577;28;20031;-81
2023/11/27 06:55:06;;;;;;;0.10;0.10;;;2.60;99.90;;;;;;5103069;28;20077;-81
2023/11/27 06:57:32;;;;;;;6.95;2.80;;;2.60;99.90;;;;;;5105641;28;20258;-81
2023/11/27 06:59:58;;;;;;;11.27;6.38;;;2.60;99.90;;;;;;5102013;28;20056;-81
2023/11/27 07:02:25;;;;;;;16.60;8.70;;;2.60;99.90;;;;;;5104624;28;20504;-82
2023/11/27 07:04:51;;;;;;;2.42;2.05;;;2.70;99.90;;;;;;5105438;28;20031;-83
2023/11/27 07:07:17;;;;;;;0.20;0.20;;;2.50;99.90;;;;;;5102232;28;20023;-81
2023/11/27 07:09:43;;;;;;;0.10;0.10;;;2.50;99.90;;;;;;5103471;28;20050;-82
2023/11/27 07:12:08;;;;;;;4.90;2.05;;;2.60;99.90;;;;;;5106217;28;20050;-82
2023/11/27 07:14:34;;;;;;;1.35;1.30;;;2.50;99.90;;;;;;5099850;28;20073;-81
2023/11/27 07:17:00;;;;;;;0.28;0.28;;;2.50;99.90;;;;;;5105349;28;20478;-80
2023/11/27 07:19:25;;;;;;;0.10;0.10;;;2.70;99.90;;;;;;5099853;28;20067;-81
2023/11/27 07:21:51;;;;;;;0.75;0.75;;;2.70;99.90;;;;;;5099982;28;20058;-81
2023/11/27 07:24:17;;;;;;;0.10;0.10;;;2.80;99.90;;;;;;5105780;28;20035;-81
2023/11/27 07:26:43;;;;;;;0.10;0.10;;;2.90;99.90;;;;;;5105818;28;20024;-81
2023/11/27 07:29:09;;;;;;;0.10;0.10;;;3.00;99.90;;;;;;5097753;28;20359;-81
2023/11/27 07:31:35;;;;;;;0.20;0.20;;;3.00;99.90;;;;;;5101097;28;20019;-82
2023/11/27 07:34:02;;;;;;;0.10;0.10;;;3.00;99.90;;;;;;5102064;28;20031;-81
2023/11/27 07:36:28;;;;;;;0.10;0.10;;;3.00;99.90;;;;;;5100460;27;20019;-81
2023/11/27 07:38:55;;;;;;;0.10;0.10;;;3.10;99.90;;;;;;5102618;27;20500;-83
2023/11/27 07:41:21;;;;;;;0.10;0.10;;;3.10;99.90;;;;;;5103417;28;20050;-81
2023/11/27 07:43:48;;;;;;;0.20;0.20;;;3.00;99.90;;;;;;5104405;28;20584;-81
2023/11/27 07:46:14;;;;;;;0.15;0.15;;;3.00;99.90;;;;;;5102980;28;20024;-81
2023/11/27 07:48:40;;;;;;;0.10;0.10;;;3.20;99.90;;;;;;5103743;28;20789;-82
2023/11/27 07:51:07;;;;;;;0.10;0.10;;;3.20;99.90;;;;;;5104040;28;20489;-82
2023/11/27 07:53:33;;;;;;;0.10;0.10;;;3.10;99.90;;;;;;5104931;28;20082;-81
2023/11/27 07:56:01;;;;;;;0.10;0.10;;;2.90;99.90;;;;;;5104939;28;20716;-82
2023/11/27 07:58:28;;;;;;;0.63;0.52;;;2.90;99.90;;;;;;5103592;28;20024;-81
2023/11/27 08:00:54;;;;;;;0.20;0.20;;;2.90;99.90;;;;;;5104373;28;20062;-82
2023/11/27 08:03:20;;;;;;;0.17;0.17;;;3.00;99.90;;;;;;5103756;28;20409;-81
2023/11/27 08:05:47;;;;;;;0.25;0.25;;;3.20;99.90;;;;;;5100082;28;20100;-80
2023/11/27 08:08:17;;;;;;;0.10;0.10;;;3.50;99.90;;;;;;5104069;28;20031;-81
2023/11/27 08:10:44;;;;;;;0.10;0.10;;;3.60;99.90;;;;;;5102004;28;20038;-82
2023/11/27 08:13:11;;;;;;;0.10;0.10;;;3.60;99.90;;;;;;5103460;28;20043;-81
2023/11/27 08:15:37;;;;;;;0.10;0.10;;;3.50;99.90;;;;;;5101086;28;20763;-81
2023/11/27 08:18:04;;;;;;;0.10;0.10;;;3.70;99.90;;;;;;5105467;28;20035;-81
2023/11/27 08:20:32;;;;;;;;;;;3.80;99.90;;;;;;5098989;28;20051;-81
2023/11/27 08:22:58;;;;;;;0.20;0.20;;;3.80;99.90;;;;;;5101518;28;19907;-81
2023/11/27 08:25:25;;;;;;;0.13;0.13;;;3.70;99.90;;;;;;5100427;28;20032;-83
2023/11/27 08:27:52;;;;;;;0.15;0.15;;;3.60;99.90;;;;;;5098564;28;20031;-81
2023/11/27 08:30:18;;;;;;;;;;;3.80;99.90;;;;;;5101497;28;20051;-81
2023/11/27 08:32:45;;;;;;;0.10;0.10;;;3.70;99.90;;;;;;5096766;28;19993;-81
2023/11/27 08:35:11;;;;;;;0.10;0.10;;;3.80;99.90;;;;;;5095894;28;20071;-81
2023/11/27 08:37:37;;;;;;;0.10;0.10;;;3.80;99.90;;;;;;5104666;28;20442;-81
2023/11/27 08:40:09;;;;;;;0.13;0.13;;;3.50;99.90;;;;;;5104078;28;20502;-81
2023/11/27 08:42:35;;;;;;;0.10;0.10;;;3.60;99.90;;;;;;5102552;28;20386;-81
2023/11/27 08:45:06;;;;;;;0.10;0.10;;;3.80;99.90;;;;;;5102486;28;20814;-81
2023/11/27 08:47:32;;;;;;;0.10;0.10;;;3.80;99.90;;;;;;5104178;28;20115;-81
2023/11/27 08:49:59;;;;;;;0.10;0.10;;;3.90;99.90;;;;;;5102568;28;20034;-81
2023/11/27 08:52:26;;;;;;;0.10;0.10;;;3.80;99.90;;;;;;5103798;28;20108;-81
2023/11/27 08:54:52;;;;;;;;;;;3.80;99.90;;;;;;5103634;28;20034;-81
2023/11/27 08:57:18;;;;;;;0.45;0.45;;;3.90;99.90;;;;;;5103723;28;20592;-81
2023/11/27 08:59:44;;;;;;;0.15;0.15;;;3.80;99.90;;;;;;5102875;28;20043;-81
2023/11/27 09:02:10;;;;;;;0.20;0.20;;;3.70;99.90;;;;;;5102937;28;20019;-82
2023/11/27 09:04:35;;;;;;;0.10;0.10;;;3.70;99.90;;;;;;5100901;28;20036;-81
2023/11/27 09:07:01;;;;;;;0.10;0.10;;;3.80;99.90;;;;;;5104144;28;20028;-81
2023/11/27 09:09:27;;;;;;;0.10;0.10;;;3.90;99.90;;;;;;5100716;28;20397;-81
2023/11/27 09:11:52;;;;;;;0.10;0.10;;;4.00;99.90;;;;;;5103948;28;20032;-81
2023/11/27 09:14:18;;;;;;;0.30;0.30;;;4.00;99.90;;;;;;5100239;28;20080;-81
2023/11/27 09:16:43;;;;;;;0.10;0.10;;;4.10;99.90;;;;;;5100326;28;20084;-81
2023/11/27 09:19:11;;;;;;;0.10;0.10;;;4.40;99.90;;;;;;5098217;28;20031;-81
2023/11/27 09:21:37;;;;;;;;;;;4.60;99.90;;;;;;5100337;28;20094;-81
2023/11/27 09:24:03;;;;;;;0.40;0.40;;;4.80;99.90;;;;;;5099615;28;20657;-81
2023/11/27 09:26:29;;;;;;;0.10;0.10;;;4.90;99.90;;;;;;5099587;28;20019;-81
2023/11/27 09:28:54;;;;;;;0.40;0.40;;;5.00;99.90;;;;;;5099654;28;20051;-83
2023/11/27 09:31:21;;;;;;;0.55;0.55;;;5.00;99.90;;;;;;5099441;28;20103;-81
2023/11/27 09:33:47;;;;;;;;;;;4.90;99.90;;;;;;5101080;28;20782;-81
2023/11/27 09:36:15;;;;;;;0.10;0.10;;;4.80;99.90;;;;;;5101423;28;21002;-82
2023/11/27 09:38:41;;;;;;;0.10;0.10;;;4.80;99.90;;;;;;5103531;28;20024;-83
2023/11/27 09:41:07;;;;;;;0.10;0.10;;;4.90;99.90;;;;;;5101292;28;20031;-81
2023/11/27 09:43:37;;;;;;;0.73;0.73;;;5.00;99.90;;;;;;5103746;28;20794;-81
2023/11/27 09:46:09;;;;;;;0.10;0.10;;;4.90;99.90;;;;;;5102341;28;20699;-81
2023/11/27 09:48:39;;;;;;;1.35;1.17;;;4.80;99.90;;;;;;5102499;28;20027;-82
2023/11/27 09:51:13;;;;;;;0.15;0.15;;;4.80;99.90;;;;;;5102375;28;20023;-83
2023/11/27 09:53:49;;;;;;;0.10;0.10;;;5.10;99.90;;;;;;5097875;28;20024;-81
2023/11/27 09:56:15;;;;;;;0.15;0.15;;;5.30;99.90;;;;;;5099056;28;20161;-83
2023/11/27 09:58:43;;;;;;;0.10;0.10;;;5.50;99.90;;;;;;5100100;28;20402;-81
2023/11/27 10:01:15;;;;;;;0.30;0.30;;;5.70;99.90;;;;;;5098758;28;20281;-83
2023/11/27 10:03:42;;;;;;;1.15;0.65;;;5.60;99.00;;;;;;5099123;28;20085;-81
2023/11/27 10:06:11;;;;;;;;;;;5.60;98.50;;;;;;5095549;28;20035;-81
2023/11/27 10:08:37;;;;;;;0.10;0.10;;;5.50;99.20;;;;;;5085245;28;19908;-81
2023/11/27 10:11:04;;;;;;;0.40;0.40;;;5.40;99.80;;;;;;5095649;28;20029;-82
2023/11/27 10:13:42;;;;;;;0.13;0.13;;;5.40;99.90;;;;;;5103249;28;20144;-81
2023/11/27 10:16:09;;;;;;;0.10;0.10;;;5.30;99.60;;;;;;5098182;28;20797;-82
2023/11/27 10:18:35;;;;;;;0.30;0.30;;;5.30;99.70;;;;;;5096730;28;20035;-82
2023/11/27 10:21:08;;;;;;;0.00;0.00;;;5.40;99.40;;;;;;5093566;28;20032;-82
2023/11/27 10:23:35;;;;;;;0.10;0.10;;;5.40;99.30;;;;;;5098489;28;20079;-83
2023/11/27 10:26:03;;;;;;;0.17;0.17;;;5.40;99.60;;;;;;5098161;28;20019;-81
2023/11/27 10:28:50;;;;;;;0.30;0.30;;;5.40;99.60;;;;;;5097518;28;20108;-81
2023/11/27 10:31:16;;;;;;;;;;;5.30;99.80;;;;;;5101386;28;20024;-81
2023/11/27 10:33:42;;;;;;;0.10;0.10;;;5.40;99.40;;;;;;5095822;28;19912;-81
2023/11/27 10:36:09;;;;;;;0.10;0.10;;;5.30;99.50;;;;;;5095789;28;20054;-81
2023/11/27 10:38:36;;;;;;;0.20;0.20;;;5.20;99.40;;;;;;5085692;28;20424;-81
2023/11/27 10:41:05;;;;;;;0.10;0.10;;;5.20;99.00;;;;;;5100324;28;20035;-81
2023/11/27 10:43:34;;;;;;;0.10;0.10;;;5.40;98.60;;;;;;5102921;28;20020;-81
2023/11/27 10:46:03;;;;;;;0.10;0.10;;;5.60;97.90;;;;;;5102279;28;20020;-81
2023/11/27 10:48:29;;;;;;;0.10;0.10;;;5.50;98.60;;;;;;5101459;28;20051;-81
2023/11/27 10:50:57;;;;;;;0.10;0.10;;;5.40;98.40;;;;;;5102254;28;20470;-82
2023/11/27 10:53:25;;;;;;;0.10;0.10;;;5.30;99.90;;;;;;5098240;28;20278;-82
2023/11/27 10:55:52;;;;;;;0.10;0.10;;;5.40;99.60;;;;;;5101448;28;20023;-82
2023/11/27 10:58:18;;;;;;;0.15;0.15;;;5.40;99.70;;;;;;5102548;28;20035;-81
2023/11/27 11:00:56;;;;;;;0.45;0.45;;;5.40;99.90;;;;;;5101893;28;20062;-81
2023/11/27 11:03:24;;;;;;;0.10;0.10;;;5.20;99.90;;;;;;5098652;28;20031;-81
2023/11/27 11:05:55;;;;;;;0.10;0.10;;;5.30;99.60;;;;;;5102503;28;20115;-82
2023/11/27 11:08:32;;;;;;;0.55;0.55;;;5.30;99.00;;;;;;5103223;28;20034;-81
2023/11/27 11:11:00;;;;;;;0.10;0.10;;;5.20;99.00;;;;;;5103260;28;20031;-81
2023/11/27 11:13:27;;;;;;;0.30;0.30;;;5.20;98.60;;;;;;5084926;28;20631;-82
2023/11/27 11:16:18;;;;;;;0.10;0.10;;;5.20;98.00;;;;;;5099904;28;20032;-81
2023/11/27 11:18:57;;;;;;;0.10;0.10;;;5.30;97.30;;;;;;5097947;28;20023;-83
2023/11/27 11:21:39;;;;;;;0.20;0.20;;;5.40;96.50;;;;;;5103778;28;20077;-81
2023/11/27 11:24:29;;;;;;;0.10;0.10;;;5.50;95.60;;;;;;5103386;28;20058;-81
2023/11/27 11:27:20;;;;;;;0.10;0.10;;;5.60;95.40;;;;;;5098565;28;20441;-82
2023/11/27 11:29:49;;;;;;;0.10;0.10;;;5.60;95.10;;;;;;5102640;28;20024;-81
2023/11/27 11:32:16;;;;;;;0.10;0.10;;;5.50;94.10;;;;;;5105621;28;20020;-82
2023/11/27 11:34:43;;;;;;;0.20;0.20;;;5.50;94.20;;;;;;5105319;28;20030;-81
2023/11/27 11:37:17;;;;;;;0.10;0.10;;;5.60;93.90;;;;;;5101842;27;20022;-81
2023/11/27 11:39:49;;;;;;;0.10;0.10;;;5.60;94.30;;;;;;5105061;28;20139;-81
2023/11/27 11:42:20;;;;;;;0.10;0.10;;;5.50;94.00;;;;;;5105222;28;20023;-82
2023/11/27 11:45:03;;;;;;;0.10;0.10;;;5.60;93.80;;;;;;5103378;28;20038;-82
2023/11/27 11:47:33;;;;;;;0.10;0.10;;;5.70;93.80;;;;;;5097245;28;20055;-82
2023/11/27 11:50:32;;;;;;;0.10;0.10;;;5.80;93.00;;;;;;5104304;28;20099;-82
2023/11/27 11:53:18;;;;;;;0.10;0.10;;;5.60;94.30;;;;;;5104699;28;20023;-81
2023/11/27 11:55:47;;;;;;;0.10;0.10;;;4.60;99.90;;;;;;5097564;28;20500;-81
2023/11/27 11:58:19;;;;;;;0.15;0.15;;;4.50;99.90;;;;;;5095952;28;20051;-82
2023/11/27 12:00:48;;;;;;;0.20;0.20;;;4.80;99.90;;;;;;5104042;28;20056;-82
2023/11/27 12:03:20;;;;;;;0.20;0.20;;;5.00;99.90;;;;;;5102034;28;20224;-81
2023/11/27 12:05:53;;;;;;;0.10;0.10;;;5.20;99.90;;;;;;5100664;28;20035;-81
2023/11/27 12:08:23;;;;;;;0.10;0.10;;;5.30;99.90;;;;;;5104628;28;20023;-81
2023/11/27 12:10:51;;;;;;;0.10;0.10;;;5.40;99.90;;;;;;5100918;28;20059;-81
2023/11/27 12:13:20;;;;;;;0.10;0.10;;;5.40;99.90;;;;;;5105095;28;20020;-81
2023/11/27 12:15:58;;;;;;;0.10;0.10;;;5.40;99.90;;;;;;5103951;28;20083;-81
2023/11/27 12:18:26;;;;;;;0.10;0.10;;;5.50;99.90;;;;;;5105211;28;20538;-81
2023/11/27 12:20:52;;;;;;;0.10;0.10;;;5.60;99.90;;;;;;5098671;28;20040;-81
2023/11/27 12:23:18;;;;;;;0.10;0.10;;;5.60;99.90;;;;;;5103503;28;20020;-81
2023/11/27 12:25:44;;;;;;;0.52;0.52;;;5.70;99.90;;;;;;5100907;28;20031;-82
2023/11/27 12:28:11;;;;;;;0.10;0.10;;;5.70;99.90;;;;;;5104555;28;20031;-81
2023/11/27 12:30:38;;;;;;;0.10;0.10;;;5.80;99.90;;;;;;5098191;28;20034;-82
2023/11/27 12:33:05;;;;;;;0.10;0.10;;;5.70;99.90;;;;;;5098812;28;20505;-81
2023/11/27 12:35:31;;;;;;;0.10;0.10;;;5.70;99.90;;;;;;5100040;28;20023;-81
2023/11/27 12:38:01;;;;;;;0.10;0.10;;;5.60;98.80;;;;;;5104071;28;20557;-81
2023/11/27 12:40:33;;;;;;;0.10;0.10;;;5.70;98.00;;;;;;5104364;28;20074;-81
2023/11/27 12:42:59;;;;;;;0.15;0.15;;;5.60;97.00;;;;;;5101713;28;20028;-82
2023/11/27 12:45:27;;;;;;;0.10;0.10;;;5.70;97.60;;;;;;5101981;28;20353;-81
2023/11/27 12:47:57;;;;;;;1.17;1.17;;;5.60;96.30;;;;;;5102655;28;20482;-82
2023/11/27 12:50:31;;;;;;;0.10;0.10;;;5.70;96.60;;;;;;5104165;28;20020;-81
2023/11/27 12:53:07;;;;;;;0.10;0.10;;;5.70;96.10;;;;;;5098517;28;20032;-81
2023/11/27 12:55:37;;;;;;;0.10;0.10;;;5.60;95.90;;;;;;5102697;28;20062;-81
2023/11/27 12:58:10;;;;;;;0.10;0.10;;;5.60;96.10;;;;;;5103750;28;20034;-81
2023/11/27 13:00:40;;;;;;;0.95;0.95;;;5.70;96.00;;;;;;5104117;28;20055;-81